• Join FlightAware (Why Join?)
  • Login
  • US Flag 
01:40AM EST


 

Airport Tracker/Info


-or-


 

Live Flight TrackerFlight Track Log ✈ UCA597 ✈ 10-Sep-2013 ✈ KIAD - KBGM

Flight Track Log - Related Links

Times and Time Zones

All times are in EDT time to prevent confusion due to time zone crossing. See the UCA597 flight status page for this flight to view local times or setup timezone preferences in your user account.

Time Position Orientation Groundspeed Altitude Reporting Facility
EDT Latitude Longitude Course Direction KTS MPH feet Rate Location/Type
06:32PM 38.9667 -77.5333 North 151 174 2,200  Level Potomac TRACON
06:33PM 38.9964 -77.6242 293° West 171 197 4,800 1,200 Climbing Washington Center
06:34PM 39.0331 -77.6706 316° Northwest 171 197 5,800 1,260 Climbing Washington Center
06:35PM 39.0789 -77.6744 356° North 171 197 7,300 1,260 Climbing Washington Center
06:36PM 39.1289 -77.6761 359° North 177 204 8,400 1,140 Climbing Washington Center
06:37PM 39.3098 -77.3028 North  Level Estimated
06:37PM 39.1786 -77.6961 343° North 182 209 9,700  Level Washington Center
06:38PM 39.2303 -77.7164 343° North 182 209 11,000 1,260 Climbing Washington Center
06:39PM 39.2819 -77.7339 345° North 187 215 12,200 1,140 Climbing Washington Center
06:40PM 39.3358 -77.7544 344° North 187 215 13,300 1,020 Climbing Washington Center
06:41PM 39.3819 -77.7397 14° North 182 209 14,300 1,140 Climbing Washington Center
06:42PM 39.4203 -77.6950 42° Northeast 167 192 15,600 900 Climbing Washington Center
06:43PM 39.4669 -77.6453 39° Northeast 177 204 16,200 660 Climbing Washington Center
06:45PM 39.5469 -77.5589 40° Northeast 211 243 17,400 660 Climbing New York Center
06:46PM 39.5961 -77.5042 41° Northeast 226 260 18,000 600 Climbing New York Center
06:47PM 39.6403 -77.4572 39° Northeast 221 254 18,600 480 Climbing New York Center
06:48PM 39.7097 -77.4503 North 215 247 19,000 180 Climbing New York Center
06:49PM 39.7742 -77.4511 359° North 240 276 19,000  Level New York Center
06:50PM 39.8533 -77.4506 360° North 253 291 19,000  Level New York Center
06:51PM 39.9200 -77.4514 359° North 259 298 19,000  Level New York Center
06:52PM 39.9994 -77.4508 360° North 259 298 19,000  Level New York Center
06:53PM 40.0661 -77.4492 North 259 298 19,000  Level New York Center
06:54PM 40.1475 -77.4489 360° North 259 298 19,000  Level New York Center
06:55PM 40.2122 -77.4469 North 254 292 19,000  Level New York Center
06:56PM 40.2939 -77.4439 North 254 292 19,000  Level New York Center
06:57PM 40.3625 -77.4450 359° North 259 298 19,000  Level New York Center
06:58PM 40.4419 -77.4419 North 259 298 19,000  Level New York Center
06:59PM 40.5086 -77.4428 359° North 259 298 19,000 -240 Level New York Center
07:00PM 40.5881 -77.4394 North 259 298 18,600 -600 Descending New York Center
07:01PM 40.6647 -77.4086 17° North 273 314 17,800 -780 Descending New York Center
07:02PM 40.7350 -77.3469 34° Northeast 273 314 17,100 -420 Descending New York Center
07:03PM 40.8025 -77.2931 31° Northeast 284 327 17,000 -60 Descending New York Center
07:04PM 40.8681 -77.2389 32° Northeast 284 327 17,000  Level New York Center
07:05PM 40.9314 -77.1872 32° Northeast 278 320 17,000 -420 Level New York Center
07:06PM 40.9969 -77.1303 33° Northeast 272 313 16,200 -900 Descending New York Center
07:07PM 41.0625 -77.0731 33° Northeast 272 313 15,200 -1,020 Descending New York Center
07:08PM 41.1300 -77.0186 31° Northeast 272 313 14,200 -1,020 Descending New York Center
07:09PM 41.1972 -76.9642 31° Northeast 277 319 13,200 -600 Descending New York Center
07:10PM 41.2586 -76.9092 34° Northeast 277 319 13,000 -120 Descending New York Center
07:11PM 41.3194 -76.8594 32° Northeast 264 304 13,000  Level New York Center
07:12PM 41.3783 -76.8094 32° Northeast 259 298 13,000  Level New York Center
07:13PM 41.4369 -76.7594 33° Northeast 259 298 13,000  Level New York Center
07:14PM 41.4978 -76.7094 32° Northeast 254 292 13,000  Level New York Center
07:15PM 41.5503 -76.6614 34° Northeast 254 292 13,000 -240 Level New York Center
07:16PM 41.6089 -76.6111 33° Northeast 249 287 12,600 -900 Descending New York Center
07:17PM 41.6806 -76.5506 32° Northeast 262 302 11,300 -1,200 Descending New York Center
07:18PM 41.7461 -76.4897 35° Northeast 269 310 10,200 -1,140 Descending New York Center
07:19PM 41.8097 -76.4200 39° Northeast 276 318 9,100 -1,080 Descending New York Center
07:20PM 41.8625 -76.3603 40° Northeast 276 318 8,100 -1,140 Descending New York Center
07:21PM 41.9242 -76.2931 39° Northeast 263 303 6,900 -1,200 Descending New York Center
07:22PM 41.9808 -76.2336 38° Northeast 263 303 5,800 -1,140 Descending New York Center
07:23PM 42.0381 -76.1714 39° Northeast 263 303 4,700 -1,020 Descending New York Center
07:24PM 42.0883 -76.1139 40° Northeast 263 303 3,800 -600 Descending New York Center
07:25PM 42.1453 -76.0542 38° Northeast 263 303 3,600 -240 Descending New York Center
07:26PM 42.2006 -76.0250 21° North 240 276 3,400 -600 Descending New York Center
07:27PM 42.2406 -76.0169 North 188 216 2,500 -720 Descending New York Center
07:28PM 42.2567 -75.9792 60° Northeast 176 203 2,000 3,240 Descending New York Center
07:29PM 42.2828 -75.9531 36° Northeast 176 203 9,000 3,480 Climbing New York Center
07:30PM 42.3111 -75.9272 34° Northeast 176 203 9,000  Level New York Center
07:32PM 42.2308 -75.9682 North  Level Estimated
07:39PM 42.2000 -75.9667 North  Level FlightAware Approximate
07:40PM 42.2084 -75.9796 North  Level Estimated
07:41PM 42.2084 -75.9796 North  Level Estimated
07:42PM 42.2084 -75.9796 North  Level Estimated
07:43PM 42.2084 -75.9796 North  Level Estimated
07:44PM 42.2084 -75.9796 North  Level Estimated
07:45PM 42.2084 -75.9796 North  Level Estimated